Impacts TAF Board
For situational awareness. Not to be used for flight planning purposes.
IDs:

KPDX - Portland Intl Arpt, OR, US

Issued at 0249 UTC 14 Dec 2018
Updated at 0516 UTC 14 Dec 2018
Potential Impact None Slight Moderate High
Time<<14/18Z 14/19Z 14/20Z 14/21Z 14/22Z 14/23Z 15/00Z 15/01Z 15/02Z 15/03Z 15/04Z 15/05Z 15/06Z>>
Type PRVL PRVL PRVL PRVL PRVL PRVL
VIS >6 >6 >6 >6 >6 >6
CIG 100 100 100 40 40 40
Cover OVC OVC OVC OVC OVC OVC
FltCat VFR VFR VFR VFR VFR VFR
WX -- -- -- -RA -RA -RA
WDir 150 150 150 130 130 130
WSpd 10 10 10 19 19 19
WGst 18 18 18 27 27 27
Raw TAF
KPDX 140249Z 1403/1424 11013KT P6SM FEW060 BKN250
  FM141200 11013KT P6SM OVC250
  FM141700 15010G18KT P6SM OVC100
  FM142100 13019G27KT P6SM -RA OVC040


METAR Board
Radar Display
Forecast Discussion
For situational awareness. Not to be used for flight planning purposes.